sensor_id;sensor_type;location;lat;lon;timestamp;P1;durP1;ratioP1;P2;durP2;ratioP2
15996;SDS011;8103;51.340;12.326;2023-05-07T00:02:00;10.27;;;7.95;;
15996;SDS011;8103;51.340;12.326;2023-05-07T00:04:27;9.40;;;7.68;;
15996;SDS011;8103;51.340;12.326;2023-05-07T00:06:54;10.25;;;7.00;;
15996;SDS011;8103;51.340;12.326;2023-05-07T00:09:21;10.38;;;7.72;;
15996;SDS011;8103;51.340;12.326;2023-05-07T00:11:48;8.30;;;7.50;;
15996;SDS011;8103;51.340;12.326;2023-05-07T00:14:15;8.88;;;7.07;;
15996;SDS011;8103;51.340;12.326;2023-05-07T00:16:42;8.43;;;7.53;;
15996;SDS011;8103;51.340;12.326;2023-05-07T00:19:09;7.75;;;6.97;;
15996;SDS011;8103;51.340;12.326;2023-05-07T00:21:36;7.28;;;6.35;;
15996;SDS011;8103;51.340;12.326;2023-05-07T00:24:03;7.53;;;6.75;;
15996;SDS011;8103;51.340;12.326;2023-05-07T00:26:30;8.35;;;6.88;;
15996;SDS011;8103;51.340;12.326;2023-05-07T00:28:57;7.93;;;7.13;;
15996;SDS011;8103;51.340;12.326;2023-05-07T00:31:24;8.93;;;7.47;;
15996;SDS011;8103;51.340;12.326;2023-05-07T00:33:50;7.15;;;6.43;;
15996;SDS011;8103;51.340;12.326;2023-05-07T00:36:17;8.57;;;6.20;;
15996;SDS011;8103;51.340;12.326;2023-05-07T00:38:44;7.93;;;7.13;;
15996;SDS011;8103;51.340;12.326;2023-05-07T00:41:11;7.35;;;6.18;;
15996;SDS011;8103;51.340;12.326;2023-05-07T00:43:38;7.63;;;6.60;;
15996;SDS011;8103;51.340;12.326;2023-05-07T00:46:05;8.18;;;6.55;;
15996;SDS011;8103;51.340;12.326;2023-05-07T00:48:31;9.00;;;5.95;;
15996;SDS011;8103;51.340;12.326;2023-05-07T00:50:59;7.70;;;6.90;;
15996;SDS011;8103;51.340;12.326;2023-05-07T00:53:26;7.82;;;7.03;;
15996;SDS011;8103;51.340;12.326;2023-05-07T00:55:53;7.82;;;6.50;;
15996;SDS011;8103;51.340;12.326;2023-05-07T00:58:21;7.35;;;6.30;;
15996;SDS011;8103;51.340;12.326;2023-05-07T01:00:49;7.75;;;6.95;;
15996;SDS011;8103;51.340;12.326;2023-05-07T01:03:16;9.23;;;7.88;;
15996;SDS011;8103;51.340;12.326;2023-05-07T01:05:43;8.48;;;7.07;;
15996;SDS011;8103;51.340;12.326;2023-05-07T01:08:14;8.18;;;7.45;;
15996;SDS011;8103;51.340;12.326;2023-05-07T01:10:43;8.98;;;8.02;;
15996;SDS011;8103;51.340;12.326;2023-05-07T01:13:11;8.60;;;6.65;;
15996;SDS011;8103;51.340;12.326;2023-05-07T01:15:40;9.10;;;8.13;;
15996;SDS011;8103;51.340;12.326;2023-05-07T01:18:07;11.20;;;8.65;;
15996;SDS011;8103;51.340;12.326;2023-05-07T01:20:34;10.88;;;8.93;;
15996;SDS011;8103;51.340;12.326;2023-05-07T01:23:01;9.00;;;7.93;;
15996;SDS011;8103;51.340;12.326;2023-05-07T01:25:29;8.55;;;7.75;;
15996;SDS011;8103;51.340;12.326;2023-05-07T01:27:57;10.05;;;8.15;;
15996;SDS011;8103;51.340;12.326;2023-05-07T01:30:25;10.65;;;8.98;;
15996;SDS011;8103;51.340;12.326;2023-05-07T01:32:56;8.68;;;7.82;;
15996;SDS011;8103;51.340;12.326;2023-05-07T01:35:37;9.90;;;8.40;;
15996;SDS011;8103;51.340;12.326;2023-05-07T01:38:09;9.52;;;8.52;;
15996;SDS011;8103;51.340;12.326;2023-05-07T01:40:37;10.93;;;8.43;;
15996;SDS011;8103;51.340;12.326;2023-05-07T01:43:05;11.05;;;9.07;;
15996;SDS011;8103;51.340;12.326;2023-05-07T01:45:32;8.23;;;7.43;;
15996;SDS011;8103;51.340;12.326;2023-05-07T01:48:01;10.18;;;8.90;;
15996;SDS011;8103;51.340;12.326;2023-05-07T01:50:29;9.65;;;8.45;;
15996;SDS011;8103;51.340;12.326;2023-05-07T01:52:58;14.70;;;9.15;;
15996;SDS011;8103;51.340;12.326;2023-05-07T01:55:25;11.18;;;10.07;;
15996;SDS011;8103;51.340;12.326;2023-05-07T01:57:52;11.43;;;9.73;;
15996;SDS011;8103;51.340;12.326;2023-05-07T02:00:19;10.70;;;9.60;;
15996;SDS011;8103;51.340;12.326;2023-05-07T02:02:46;12.43;;;10.43;;
15996;SDS011;8103;51.340;12.326;2023-05-07T02:09:38;15.52;;;10.30;;
15996;SDS011;8103;51.340;12.326;2023-05-07T02:12:05;13.35;;;10.65;;
15996;SDS011;8103;51.340;12.326;2023-05-07T02:14:32;13.00;;;11.68;;
15996;SDS011;8103;51.340;12.326;2023-05-07T02:16:58;11.65;;;10.18;;
15996;SDS011;8103;51.340;12.326;2023-05-07T02:19:25;11.80;;;10.60;;
15996;SDS011;8103;51.340;12.326;2023-05-07T02:21:52;12.32;;;11.02;;
15996;SDS011;8103;51.340;12.326;2023-05-07T02:24:20;13.93;;;11.70;;
15996;SDS011;8103;51.340;12.326;2023-05-07T02:26:47;12.55;;;11.23;;
15996;SDS011;8103;51.340;12.326;2023-05-07T02:29:14;12.73;;;11.05;;
15996;SDS011;8103;51.340;12.326;2023-05-07T02:31:41;13.75;;;12.35;;
15996;SDS011;8103;51.340;12.326;2023-05-07T02:34:08;12.38;;;10.98;;
15996;SDS011;8103;51.340;12.326;2023-05-07T02:36:35;12.40;;;10.55;;
15996;SDS011;8103;51.340;12.326;2023-05-07T02:39:02;11.90;;;10.68;;
15996;SDS011;8103;51.340;12.326;2023-05-07T02:41:29;12.80;;;11.50;;
15996;SDS011;8103;51.340;12.326;2023-05-07T02:43:56;11.70;;;10.50;;
15996;SDS011;8103;51.340;12.326;2023-05-07T02:46:23;15.95;;;11.73;;
15996;SDS011;8103;51.340;12.326;2023-05-07T02:48:50;12.07;;;10.18;;
15996;SDS011;8103;51.340;12.326;2023-05-07T02:51:20;12.40;;;11.13;;
15996;SDS011;8103;51.340;12.326;2023-05-07T02:53:50;12.88;;;10.88;;
15996;SDS011;8103;51.340;12.326;2023-05-07T02:56:17;11.73;;;10.38;;
15996;SDS011;8103;51.340;12.326;2023-05-07T02:58:44;13.38;;;11.90;;
15996;SDS011;8103;51.340;12.326;2023-05-07T03:01:11;12.60;;;11.07;;
15996;SDS011;8103;51.340;12.326;2023-05-07T03:03:39;13.10;;;11.02;;
15996;SDS011;8103;51.340;12.326;2023-05-07T03:06:06;13.50;;;12.13;;
15996;SDS011;8103;51.340;12.326;2023-05-07T03:08:33;12.05;;;10.75;;
15996;SDS011;8103;51.340;12.326;2023-05-07T03:11:01;11.60;;;10.38;;
15996;SDS011;8103;51.340;12.326;2023-05-07T03:13:28;16.50;;;11.43;;
15996;SDS011;8103;51.340;12.326;2023-05-07T03:15:55;12.40;;;11.18;;
15996;SDS011;8103;51.340;12.326;2023-05-07T03:18:21;11.25;;;10.02;;
15996;SDS011;8103;51.340;12.326;2023-05-07T03:20:48;11.30;;;10.20;;
15996;SDS011;8103;51.340;12.326;2023-05-07T03:23:15;12.57;;;10.80;;
15996;SDS011;8103;51.340;12.326;2023-05-07T03:25:42;11.68;;;9.98;;
15996;SDS011;8103;51.340;12.326;2023-05-07T03:28:09;11.82;;;10.63;;
15996;SDS011;8103;51.340;12.326;2023-05-07T03:30:36;11.10;;;10.02;;
15996;SDS011;8103;51.340;12.326;2023-05-07T03:33:02;11.13;;;10.05;;
15996;SDS011;8103;51.340;12.326;2023-05-07T03:35:29;14.02;;;10.82;;
15996;SDS011;8103;51.340;12.326;2023-05-07T03:37:56;10.80;;;9.52;;
15996;SDS011;8103;51.340;12.326;2023-05-07T03:40:23;14.90;;;9.95;;
15996;SDS011;8103;51.340;12.326;2023-05-07T03:42:50;13.05;;;10.45;;
15996;SDS011;8103;51.340;12.326;2023-05-07T03:45:17;12.40;;;10.50;;
15996;SDS011;8103;51.340;12.326;2023-05-07T03:47:44;12.30;;;10.65;;
15996;SDS011;8103;51.340;12.326;2023-05-07T03:50:11;10.93;;;9.82;;
15996;SDS011;8103;51.340;12.326;2023-05-07T03:52:38;10.38;;;9.32;;
15996;SDS011;8103;51.340;12.326;2023-05-07T03:55:05;12.68;;;11.38;;
15996;SDS011;8103;51.340;12.326;2023-05-07T03:57:33;10.73;;;9.65;;
15996;SDS011;8103;51.340;12.326;2023-05-07T03:59:59;11.82;;;10.63;;
15996;SDS011;8103;51.340;12.326;2023-05-07T04:02:26;11.50;;;10.18;;
15996;SDS011;8103;51.340;12.326;2023-05-07T04:04:54;12.07;;;10.82;;
15996;SDS011;8103;51.340;12.326;2023-05-07T04:07:20;11.38;;;9.75;;
15996;SDS011;8103;51.340;12.326;2023-05-07T04:09:48;13.10;;;10.38;;
15996;SDS011;8103;51.340;12.326;2023-05-07T04:12:15;11.85;;;10.65;;
15996;SDS011;8103;51.340;12.326;2023-05-07T04:14:41;11.82;;;10.57;;
15996;SDS011;8103;51.340;12.326;2023-05-07T04:17:08;12.80;;;11.18;;
15996;SDS011;8103;51.340;12.326;2023-05-07T04:19:36;13.57;;;11.60;;
15996;SDS011;8103;51.340;12.326;2023-05-07T04:22:03;12.57;;;10.20;;
15996;SDS011;8103;51.340;12.326;2023-05-07T04:24:33;13.00;;;9.80;;
15996;SDS011;8103;51.340;12.326;2023-05-07T04:27:00;13.80;;;10.70;;
15996;SDS011;8103;51.340;12.326;2023-05-07T04:29:27;14.50;;;10.30;;
15996;SDS011;8103;51.340;12.326;2023-05-07T04:31:54;12.85;;;11.55;;
15996;SDS011;8103;51.340;12.326;2023-05-07T04:34:22;13.27;;;11.43;;
15996;SDS011;8103;51.340;12.326;2023-05-07T04:36:49;13.27;;;11.35;;
15996;SDS011;8103;51.340;12.326;2023-05-07T04:39:15;14.02;;;10.93;;
15996;SDS011;8103;51.340;12.326;2023-05-07T04:41:43;10.88;;;9.68;;
15996;SDS011;8103;51.340;12.326;2023-05-07T04:44:10;12.52;;;10.75;;
15996;SDS011;8103;51.340;12.326;2023-05-07T04:46:37;13.63;;;11.18;;
15996;SDS011;8103;51.340;12.326;2023-05-07T04:49:03;11.65;;;10.13;;
15996;SDS011;8103;51.340;12.326;2023-05-07T04:51:31;12.68;;;9.55;;
15996;SDS011;8103;51.340;12.326;2023-05-07T04:53:58;16.38;;;10.50;;
15996;SDS011;8103;51.340;12.326;2023-05-07T04:56:27;12.02;;;10.80;;
15996;SDS011;8103;51.340;12.326;2023-05-07T04:58:56;12.98;;;10.00;;
15996;SDS011;8103;51.340;12.326;2023-05-07T05:01:22;12.23;;;10.15;;
15996;SDS011;8103;51.340;12.326;2023-05-07T05:03:49;13.07;;;10.50;;
15996;SDS011;8103;51.340;12.326;2023-05-07T05:06:16;13.00;;;10.27;;
15996;SDS011;8103;51.340;12.326;2023-05-07T05:08:43;11.38;;;10.00;;
15996;SDS011;8103;51.340;12.326;2023-05-07T05:15:16;9.68;;;8.20;;
15996;SDS011;8103;51.340;12.326;2023-05-07T05:17:43;12.82;;;10.00;;
15996;SDS011;8103;51.340;12.326;2023-05-07T05:20:10;10.13;;;9.10;;
15996;SDS011;8103;51.340;12.326;2023-05-07T05:22:38;10.93;;;9.30;;
15996;SDS011;8103;51.340;12.326;2023-05-07T05:25:05;10.88;;;9.77;;
15996;SDS011;8103;51.340;12.326;2023-05-07T05:27:32;12.07;;;8.55;;
15996;SDS011;8103;51.340;12.326;2023-05-07T05:29:58;12.25;;;9.20;;
15996;SDS011;8103;51.340;12.326;2023-05-07T05:32:25;9.70;;;8.70;;
15996;SDS011;8103;51.340;12.326;2023-05-07T05:34:52;10.27;;;8.38;;
15996;SDS011;8103;51.340;12.326;2023-05-07T05:41:25;9.40;;;7.30;;
15996;SDS011;8103;51.340;12.326;2023-05-07T05:43:55;10.70;;;8.25;;
15996;SDS011;8103;51.340;12.326;2023-05-07T05:46:22;9.18;;;7.70;;
15996;SDS011;8103;51.340;12.326;2023-05-07T05:48:50;8.88;;;7.97;;
15996;SDS011;8103;51.340;12.326;2023-05-07T05:51:17;9.07;;;7.07;;
15996;SDS011;8103;51.340;12.326;2023-05-07T05:53:44;8.40;;;7.22;;
15996;SDS011;8103;51.340;12.326;2023-05-07T05:56:12;7.22;;;6.53;;
15996;SDS011;8103;51.340;12.326;2023-05-07T05:58:39;9.15;;;6.78;;
15996;SDS011;8103;51.340;12.326;2023-05-07T06:01:06;8.52;;;7.25;;
15996;SDS011;8103;51.340;12.326;2023-05-07T06:03:33;7.85;;;6.82;;
15996;SDS011;8103;51.340;12.326;2023-05-07T06:06:00;8.02;;;6.80;;
15996;SDS011;8103;51.340;12.326;2023-05-07T06:08:30;8.23;;;6.95;;
15996;SDS011;8103;51.340;12.326;2023-05-07T06:10:57;9.95;;;6.50;;
15996;SDS011;8103;51.340;12.326;2023-05-07T06:13:26;9.57;;;7.15;;
15996;SDS011;8103;51.340;12.326;2023-05-07T06:15:53;8.52;;;7.32;;
15996;SDS011;8103;51.340;12.326;2023-05-07T06:18:20;8.35;;;7.22;;
15996;SDS011;8103;51.340;12.326;2023-05-07T06:20:47;10.07;;;7.50;;
15996;SDS011;8103;51.340;12.326;2023-05-07T06:23:17;7.75;;;6.95;;
15996;SDS011;8103;51.340;12.326;2023-05-07T06:25:49;9.57;;;8.40;;
15996;SDS011;8103;51.340;12.326;2023-05-07T06:28:17;8.15;;;7.35;;
15996;SDS011;8103;51.340;12.326;2023-05-07T06:30:44;8.85;;;8.00;;
15996;SDS011;8103;51.340;12.326;2023-05-07T06:33:11;11.15;;;7.65;;
15996;SDS011;8103;51.340;12.326;2023-05-07T06:35:37;8.65;;;7.13;;
15996;SDS011;8103;51.340;12.326;2023-05-07T06:38:05;8.43;;;7.18;;
15996;SDS011;8103;51.340;12.326;2023-05-07T06:40:31;9.07;;;8.18;;
15996;SDS011;8103;51.340;12.326;2023-05-07T06:42:58;7.97;;;7.18;;
15996;SDS011;8103;51.340;12.326;2023-05-07T06:45:25;10.80;;;8.02;;
15996;SDS011;8103;51.340;12.326;2023-05-07T06:47:53;9.48;;;8.40;;
15996;SDS011;8103;51.340;12.326;2023-05-07T06:50:20;8.98;;;7.72;;
15996;SDS011;8103;51.340;12.326;2023-05-07T06:52:47;9.05;;;7.32;;
15996;SDS011;8103;51.340;12.326;2023-05-07T06:55:14;9.50;;;8.57;;
15996;SDS011;8103;51.340;12.326;2023-05-07T06:57:41;10.10;;;8.50;;
15996;SDS011;8103;51.340;12.326;2023-05-07T07:00:08;9.93;;;8.02;;
15996;SDS011;8103;51.340;12.326;2023-05-07T07:02:36;14.15;;;8.60;;
15996;SDS011;8103;51.340;12.326;2023-05-07T07:05:03;11.02;;;8.23;;
15996;SDS011;8103;51.340;12.326;2023-05-07T07:07:31;8.75;;;7.95;;
15996;SDS011;8103;51.340;12.326;2023-05-07T07:09:58;7.57;;;6.78;;
15996;SDS011;8103;51.340;12.326;2023-05-07T07:12:24;15.68;;;8.27;;
15996;SDS011;8103;51.340;12.326;2023-05-07T07:14:52;7.00;;;6.30;;
15996;SDS011;8103;51.340;12.326;2023-05-07T07:17:20;10.77;;;7.80;;
15996;SDS011;8103;51.340;12.326;2023-05-07T07:19:47;8.23;;;7.15;;
15996;SDS011;8103;51.340;12.326;2023-05-07T07:22:13;8.82;;;7.57;;
15996;SDS011;8103;51.340;12.326;2023-05-07T07:24:40;8.90;;;7.55;;
15996;SDS011;8103;51.340;12.326;2023-05-07T07:27:07;7.80;;;7.00;;
15996;SDS011;8103;51.340;12.326;2023-05-07T07:29:34;9.55;;;6.25;;
15996;SDS011;8103;51.340;12.326;2023-05-07T07:32:01;9.38;;;7.32;;
15996;SDS011;8103;51.340;12.326;2023-05-07T07:34:28;7.63;;;6.60;;
15996;SDS011;8103;51.340;12.326;2023-05-07T07:36:54;8.02;;;6.72;;
15996;SDS011;8103;51.340;12.326;2023-05-07T07:39:22;6.82;;;6.22;;
15996;SDS011;8103;51.340;12.326;2023-05-07T07:41:49;7.18;;;5.88;;
15996;SDS011;8103;51.340;12.326;2023-05-07T07:44:16;6.95;;;6.25;;
15996;SDS011;8103;51.340;12.326;2023-05-07T07:46:43;6.35;;;5.75;;
15996;SDS011;8103;51.340;12.326;2023-05-07T07:53:16;5.55;;;5.05;;
15996;SDS011;8103;51.340;12.326;2023-05-07T07:55:43;6.53;;;5.43;;
15996;SDS011;8103;51.340;12.326;2023-05-07T07:58:10;5.35;;;4.85;;
15996;SDS011;8103;51.340;12.326;2023-05-07T08:00:37;5.65;;;5.15;;
15996;SDS011;8103;51.340;12.326;2023-05-07T08:03:04;4.53;;;4.15;;
15996;SDS011;8103;51.340;12.326;2023-05-07T08:05:33;4.88;;;4.40;;
15996;SDS011;8103;51.340;12.326;2023-05-07T08:08:00;5.43;;;4.93;;
15996;SDS011;8103;51.340;12.326;2023-05-07T08:10:26;6.40;;;4.70;;
15996;SDS011;8103;51.340;12.326;2023-05-07T08:12:53;5.97;;;4.68;;
15996;SDS011;8103;51.340;12.326;2023-05-07T08:15:20;4.97;;;4.38;;
15996;SDS011;8103;51.340;12.326;2023-05-07T08:17:47;4.82;;;4.32;;
15996;SDS011;8103;51.340;12.326;2023-05-07T08:20:14;4.93;;;4.43;;
15996;SDS011;8103;51.340;12.326;2023-05-07T08:22:41;4.50;;;4.10;;
15996;SDS011;8103;51.340;12.326;2023-05-07T08:25:08;5.88;;;4.00;;
15996;SDS011;8103;51.340;12.326;2023-05-07T08:27:35;4.95;;;4.55;;
15996;SDS011;8103;51.340;12.326;2023-05-07T08:30:02;4.18;;;3.88;;
15996;SDS011;8103;51.340;12.326;2023-05-07T08:32:30;4.18;;;3.78;;
15996;SDS011;8103;51.340;12.326;2023-05-07T08:34:56;4.40;;;4.00;;
15996;SDS011;8103;51.340;12.326;2023-05-07T08:37:23;4.35;;;3.90;;
15996;SDS011;8103;51.340;12.326;2023-05-07T08:39:50;4.35;;;3.95;;
15996;SDS011;8103;51.340;12.326;2023-05-07T08:42:17;4.13;;;3.65;;
15996;SDS011;8103;51.340;12.326;2023-05-07T08:44:45;5.70;;;4.10;;
15996;SDS011;8103;51.340;12.326;2023-05-07T08:47:15;4.60;;;4.20;;
15996;SDS011;8103;51.340;12.326;2023-05-07T08:49:43;5.43;;;4.13;;
15996;SDS011;8103;51.340;12.326;2023-05-07T08:52:11;9.27;;;4.90;;
15996;SDS011;8103;51.340;12.326;2023-05-07T08:54:38;4.68;;;4.25;;
15996;SDS011;8103;51.340;12.326;2023-05-07T08:57:06;4.43;;;4.03;;
15996;SDS011;8103;51.340;12.326;2023-05-07T08:59:33;6.10;;;4.93;;
15996;SDS011;8103;51.340;12.326;2023-05-07T09:02:00;4.97;;;4.47;;
15996;SDS011;8103;51.340;12.326;2023-05-07T09:04:27;4.72;;;4.10;;
15996;SDS011;8103;51.340;12.326;2023-05-07T09:06:54;4.55;;;4.15;;
15996;SDS011;8103;51.340;12.326;2023-05-07T09:09:21;4.72;;;4.32;;
15996;SDS011;8103;51.340;12.326;2023-05-07T09:11:48;8.45;;;4.35;;
15996;SDS011;8103;51.340;12.326;2023-05-07T09:14:23;5.68;;;5.18;;
15996;SDS011;8103;51.340;12.326;2023-05-07T09:16:52;4.53;;;4.10;;
15996;SDS011;8103;51.340;12.326;2023-05-07T09:19:24;5.03;;;4.53;;
15996;SDS011;8103;51.340;12.326;2023-05-07T09:21:59;6.70;;;4.68;;
15996;SDS011;8103;51.340;12.326;2023-05-07T09:24:27;4.78;;;4.38;;
15996;SDS011;8103;51.340;12.326;2023-05-07T09:27:01;5.03;;;4.63;;
15996;SDS011;8103;51.340;12.326;2023-05-07T09:29:28;4.90;;;4.28;;
15996;SDS011;8103;51.340;12.326;2023-05-07T09:31:56;5.57;;;4.13;;
15996;SDS011;8103;51.340;12.326;2023-05-07T09:34:23;4.38;;;4.07;;
15996;SDS011;8103;51.340;12.326;2023-05-07T09:36:50;4.97;;;4.38;;
15996;SDS011;8103;51.340;12.326;2023-05-07T09:39:17;4.80;;;4.40;;
15996;SDS011;8103;51.340;12.326;2023-05-07T09:41:44;5.45;;;4.90;;
15996;SDS011;8103;51.340;12.326;2023-05-07T09:44:13;5.97;;;4.57;;
15996;SDS011;8103;51.340;12.326;2023-05-07T09:46:42;6.03;;;5.45;;
15996;SDS011;8103;51.340;12.326;2023-05-07T09:53:16;6.00;;;4.80;;
15996;SDS011;8103;51.340;12.326;2023-05-07T09:55:44;6.18;;;4.47;;
15996;SDS011;8103;51.340;12.326;2023-05-07T09:58:12;4.18;;;3.88;;
15996;SDS011;8103;51.340;12.326;2023-05-07T10:00:40;5.50;;;4.55;;
15996;SDS011;8103;51.340;12.326;2023-05-07T10:03:09;6.15;;;5.30;;
15996;SDS011;8103;51.340;12.326;2023-05-07T10:05:37;7.70;;;6.88;;
15996;SDS011;8103;51.340;12.326;2023-05-07T10:08:05;5.63;;;5.00;;
15996;SDS011;8103;51.340;12.326;2023-05-07T10:10:32;5.75;;;5.05;;
15996;SDS011;8103;51.340;12.326;2023-05-07T10:13:01;5.28;;;4.78;;
15996;SDS011;8103;51.340;12.326;2023-05-07T10:15:31;5.15;;;4.75;;
15996;SDS011;8103;51.340;12.326;2023-05-07T10:18:03;4.32;;;3.92;;
15996;SDS011;8103;51.340;12.326;2023-05-07T10:20:33;4.38;;;4.00;;
15996;SDS011;8103;51.340;12.326;2023-05-07T10:23:03;7.22;;;4.90;;
15996;SDS011;8103;51.340;12.326;2023-05-07T10:25:32;9.02;;;5.07;;
15996;SDS011;8103;51.340;12.326;2023-05-07T10:28:00;4.28;;;3.63;;
15996;SDS011;8103;51.340;12.326;2023-05-07T10:34:42;4.00;;;3.60;;
15996;SDS011;8103;51.340;12.326;2023-05-07T10:37:13;6.78;;;4.38;;
15996;SDS011;8103;51.340;12.326;2023-05-07T10:39:40;5.43;;;4.57;;
15996;SDS011;8103;51.340;12.326;2023-05-07T10:42:08;21.02;;;4.75;;
15996;SDS011;8103;51.340;12.326;2023-05-07T10:51:32;3.90;;;3.58;;
15996;SDS011;8103;51.340;12.326;2023-05-07T11:05:20;8.48;;;4.75;;
15996;SDS011;8103;51.340;12.326;2023-05-07T11:08:00;4.88;;;4.35;;
15996;SDS011;8103;51.340;12.326;2023-05-07T11:10:49;5.82;;;5.05;;
15996;SDS011;8103;51.340;12.326;2023-05-07T11:13:18;5.80;;;5.15;;
15996;SDS011;8103;51.340;12.326;2023-05-07T11:16:30;5.00;;;4.50;;
15996;SDS011;8103;51.340;12.326;2023-05-07T11:19:01;5.85;;;4.45;;
15996;SDS011;8103;51.340;12.326;2023-05-07T11:24:04;5.85;;;5.25;;
15996;SDS011;8103;51.340;12.326;2023-05-07T11:26:53;5.25;;;4.78;;
15996;SDS011;8103;51.340;12.326;2023-05-07T11:29:21;4.65;;;4.07;;
15996;SDS011;8103;51.340;12.326;2023-05-07T11:31:49;4.47;;;3.85;;
15996;SDS011;8103;51.340;12.326;2023-05-07T11:34:23;4.13;;;3.72;;
15996;SDS011;8103;51.340;12.326;2023-05-07T11:36:51;3.63;;;3.33;;
15996;SDS011;8103;51.340;12.326;2023-05-07T11:39:32;4.40;;;4.00;;
15996;SDS011;8103;51.340;12.326;2023-05-07T11:41:59;4.43;;;4.00;;
15996;SDS011;8103;51.340;12.326;2023-05-07T11:44:39;4.30;;;3.90;;
15996;SDS011;8103;51.340;12.326;2023-05-07T11:47:09;5.68;;;4.13;;
15996;SDS011;8103;51.340;12.326;2023-05-07T11:49:37;4.45;;;4.05;;
15996;SDS011;8103;51.340;12.326;2023-05-07T11:56:15;4.80;;;4.38;;
15996;SDS011;8103;51.340;12.326;2023-05-07T11:58:44;5.00;;;3.92;;
15996;SDS011;8103;51.340;12.326;2023-05-07T12:09:25;4.80;;;4.30;;
15996;SDS011;8103;51.340;12.326;2023-05-07T12:11:52;5.07;;;4.68;;
15996;SDS011;8103;51.340;12.326;2023-05-07T12:14:19;5.53;;;5.03;;
15996;SDS011;8103;51.340;12.326;2023-05-07T12:16:47;5.13;;;4.53;;
15996;SDS011;8103;51.340;12.326;2023-05-07T12:19:15;5.47;;;4.95;;
15996;SDS011;8103;51.340;12.326;2023-05-07T12:21:41;5.32;;;4.43;;
15996;SDS011;8103;51.340;12.326;2023-05-07T12:24:08;5.38;;;4.88;;
15996;SDS011;8103;51.340;12.326;2023-05-07T12:26:38;7.50;;;4.25;;
15996;SDS011;8103;51.340;12.326;2023-05-07T12:29:06;5.32;;;4.78;;
15996;SDS011;8103;51.340;12.326;2023-05-07T12:31:33;6.00;;;4.45;;
15996;SDS011;8103;51.340;12.326;2023-05-07T12:34:01;6.80;;;4.10;;
15996;SDS011;8103;51.340;12.326;2023-05-07T12:36:40;4.28;;;3.80;;
15996;SDS011;8103;51.340;12.326;2023-05-07T12:39:07;4.18;;;3.78;;
15996;SDS011;8103;51.340;12.326;2023-05-07T12:41:57;5.15;;;4.00;;
15996;SDS011;8103;51.340;12.326;2023-05-07T12:44:26;4.97;;;3.95;;
15996;SDS011;8103;51.340;12.326;2023-05-07T12:51:00;4.55;;;4.15;;
15996;SDS011;8103;51.340;12.326;2023-05-07T12:53:28;5.07;;;4.63;;
15996;SDS011;8103;51.340;12.326;2023-05-07T12:55:57;5.60;;;4.45;;
15996;SDS011;8103;51.340;12.326;2023-05-07T12:58:27;3.97;;;3.67;;
15996;SDS011;8103;51.340;12.326;2023-05-07T13:00:57;4.95;;;4.22;;
15996;SDS011;8103;51.340;12.326;2023-05-07T13:06:02;17.40;;;4.97;;
15996;SDS011;8103;51.340;12.326;2023-05-07T13:08:40;3.83;;;3.53;;
15996;SDS011;8103;51.340;12.326;2023-05-07T13:11:12;7.53;;;3.42;;
15996;SDS011;8103;51.340;12.326;2023-05-07T13:13:40;4.18;;;3.78;;
15996;SDS011;8103;51.340;12.326;2023-05-07T13:16:08;4.25;;;3.95;;
15996;SDS011;8103;51.340;12.326;2023-05-07T13:18:38;6.10;;;4.65;;
15996;SDS011;8103;51.340;12.326;2023-05-07T13:21:06;3.60;;;3.30;;
15996;SDS011;8103;51.340;12.326;2023-05-07T13:23:34;3.97;;;3.58;;
15996;SDS011;8103;51.340;12.326;2023-05-07T13:26:00;4.10;;;3.40;;
15996;SDS011;8103;51.340;12.326;2023-05-07T13:28:33;6.18;;;3.78;;
15996;SDS011;8103;51.340;12.326;2023-05-07T13:31:00;4.70;;;4.20;;
15996;SDS011;8103;51.340;12.326;2023-05-07T13:33:27;5.50;;;3.70;;
15996;SDS011;8103;51.340;12.326;2023-05-07T13:35:54;9.35;;;4.07;;
15996;SDS011;8103;51.340;12.326;2023-05-07T13:38:23;5.10;;;3.80;;
15996;SDS011;8103;51.340;12.326;2023-05-07T13:40:50;3.65;;;3.33;;
15996;SDS011;8103;51.340;12.326;2023-05-07T13:43:17;4.03;;;3.60;;
15996;SDS011;8103;51.340;12.326;2023-05-07T13:45:44;3.85;;;2.90;;
15996;SDS011;8103;51.340;12.326;2023-05-07T13:48:11;3.63;;;3.33;;
15996;SDS011;8103;51.340;12.326;2023-05-07T13:50:38;3.65;;;3.20;;
15996;SDS011;8103;51.340;12.326;2023-05-07T13:53:05;3.22;;;2.92;;
15996;SDS011;8103;51.340;12.326;2023-05-07T13:55:33;4.57;;;3.13;;
15996;SDS011;8103;51.340;12.326;2023-05-07T13:58:01;3.35;;;3.05;;
15996;SDS011;8103;51.340;12.326;2023-05-07T14:00:32;4.13;;;3.55;;
15996;SDS011;8103;51.340;12.326;2023-05-07T14:02:59;3.10;;;2.80;;
15996;SDS011;8103;51.340;12.326;2023-05-07T14:05:27;4.03;;;3.15;;
15996;SDS011;8103;51.340;12.326;2023-05-07T14:07:54;3.05;;;2.78;;
15996;SDS011;8103;51.340;12.326;2023-05-07T14:10:24;3.08;;;2.88;;
15996;SDS011;8103;51.340;12.326;2023-05-07T14:12:51;3.40;;;3.00;;
15996;SDS011;8103;51.340;12.326;2023-05-07T14:15:19;3.00;;;2.70;;
15996;SDS011;8103;51.340;12.326;2023-05-07T14:17:46;3.40;;;3.00;;
15996;SDS011;8103;51.340;12.326;2023-05-07T14:20:13;4.63;;;2.97;;
15996;SDS011;8103;51.340;12.326;2023-05-07T14:22:40;2.95;;;2.63;;
15996;SDS011;8103;51.340;12.326;2023-05-07T14:25:07;3.35;;;2.47;;
15996;SDS011;8103;51.340;12.326;2023-05-07T14:27:35;3.20;;;2.90;;
15996;SDS011;8103;51.340;12.326;2023-05-07T14:30:02;2.85;;;2.65;;
15996;SDS011;8103;51.340;12.326;2023-05-07T14:32:30;2.28;;;2.03;;
15996;SDS011;8103;51.340;12.326;2023-05-07T14:34:58;4.43;;;2.58;;
15996;SDS011;8103;51.340;12.326;2023-05-07T14:37:25;2.50;;;2.30;;
15996;SDS011;8103;51.340;12.326;2023-05-07T14:39:52;2.33;;;2.13;;
15996;SDS011;8103;51.340;12.326;2023-05-07T14:42:19;3.38;;;2.35;;
15996;SDS011;8103;51.340;12.326;2023-05-07T14:44:46;2.60;;;2.40;;
15996;SDS011;8103;51.340;12.326;2023-05-07T14:47:14;2.92;;;2.58;;
15996;SDS011;8103;51.340;12.326;2023-05-07T14:49:44;2.13;;;1.88;;
15996;SDS011;8103;51.340;12.326;2023-05-07T14:52:10;2.58;;;2.38;;
15996;SDS011;8103;51.340;12.326;2023-05-07T14:54:38;2.10;;;2.00;;
15996;SDS011;8103;51.340;12.326;2023-05-07T14:57:05;4.03;;;2.00;;
15996;SDS011;8103;51.340;12.326;2023-05-07T14:59:34;2.70;;;2.50;;
15996;SDS011;8103;51.340;12.326;2023-05-07T15:02:01;2.75;;;2.50;;
15996;SDS011;8103;51.340;12.326;2023-05-07T15:04:31;4.10;;;2.78;;
15996;SDS011;8103;51.340;12.326;2023-05-07T15:06:58;2.90;;;2.55;;
15996;SDS011;8103;51.340;12.326;2023-05-07T15:09:25;2.97;;;2.78;;
15996;SDS011;8103;51.340;12.326;2023-05-07T15:11:52;3.90;;;2.72;;
15996;SDS011;8103;51.340;12.326;2023-05-07T15:14:19;2.80;;;2.40;;
15996;SDS011;8103;51.340;12.326;2023-05-07T15:16:48;2.97;;;2.30;;
15996;SDS011;8103;51.340;12.326;2023-05-07T15:19:16;2.50;;;2.30;;
15996;SDS011;8103;51.340;12.326;2023-05-07T15:21:43;3.67;;;3.00;;
15996;SDS011;8103;51.340;12.326;2023-05-07T15:24:10;2.60;;;2.22;;
15996;SDS011;8103;51.340;12.326;2023-05-07T15:26:37;3.03;;;2.72;;
15996;SDS011;8103;51.340;12.326;2023-05-07T15:29:03;2.95;;;2.75;;
15996;SDS011;8103;51.340;12.326;2023-05-07T15:31:36;9.02;;;6.45;;
15996;SDS011;8103;51.340;12.326;2023-05-07T15:34:06;3.08;;;2.78;;
15996;SDS011;8103;51.340;12.326;2023-05-07T15:36:33;3.22;;;2.63;;
15996;SDS011;8103;51.340;12.326;2023-05-07T15:39:00;3.50;;;2.40;;
15996;SDS011;8103;51.340;12.326;2023-05-07T15:41:29;12.48;;;3.50;;
15996;SDS011;8103;51.340;12.326;2023-05-07T15:43:56;2.67;;;2.47;;
15996;SDS011;8103;51.340;12.326;2023-05-07T15:50:30;2.33;;;2.10;;
15996;SDS011;8103;51.340;12.326;2023-05-07T15:52:58;2.38;;;2.10;;
15996;SDS011;8103;51.340;12.326;2023-05-07T15:55:24;3.53;;;2.75;;